Time;durP1;ratioP1;P1;durP2;ratioP2;P2;SDS_P1;SDS_P2;PMS_P1;PMS_P2;Temp;Humidity;BMP_temperature;BMP_pressure;BME280_temperature;BME280_humidity;BME280_pressure;Samples;Min_cycle;Max_cycle;Signal;HPM_P1;HPM_P2
2024/03/17 00:00:55;;;;;;;28.23;8.00;;;;;;;21.43;52.95;101511.09;2347109;74;50117;-80
2024/03/17 00:03:58;;;;;;;23.87;7.12;;;;;;;21.43;52.92;101510.25;2385324;74;50662;-80
2024/03/17 00:07:01;;;;;;;21.52;7.70;;;;;;;21.43;52.88;101525.06;2385204;73;50709;-80
2024/03/17 00:10:03;;;;;;;24.55;7.70;;;;;;;21.44;52.85;101532.94;2385024;74;50721;-81
2024/03/17 00:13:06;;;;;;;23.47;7.22;;;;;;;21.43;52.86;101530.45;2320935;74;51321;-80
2024/03/17 00:16:09;;;;;;;29.72;7.25;;;;;;;21.44;52.83;101534.28;2320374;74;51705;-80
2024/03/17 00:19:12;;;;;;;25.72;7.40;;;;;;;21.42;52.87;101530.94;2383808;73;21726;-80
2024/03/17 00:22:15;;;;;;;29.67;7.60;;;;;;;21.41;52.90;101536.00;2383733;74;50286;-81
2024/03/17 00:25:17;;;;;;;24.25;7.45;;;;;;;21.42;52.88;101532.80;2345683;74;52686;-81
2024/03/17 00:28:20;;;;;;;25.82;7.72;;;;;;;21.42;52.91;101527.41;2384361;74;50405;-81
2024/03/17 00:31:23;;;;;;;23.00;7.00;;;;;;;21.42;52.88;101530.94;2383793;74;51021;-81
2024/03/17 00:34:26;;;;;;;26.17;7.53;;;;;;;21.41;52.90;101530.61;2346201;74;50826;-81
2024/03/17 00:37:30;;;;;;;24.50;7.50;;;;;;;21.41;52.91;101531.96;2382921;74;52178;-81
2024/03/17 00:40:32;;;;;;;22.27;6.70;;;;;;;21.41;52.89;101537.86;2319440;74;50445;-81
2024/03/17 00:43:34;;;;;;;24.72;6.65;;;;;;;21.41;52.93;101535.17;2345923;74;51333;-81
2024/03/17 00:46:37;;;;;;;21.48;6.85;;;;;;;21.40;52.89;101537.03;2383538;74;51580;-81
2024/03/17 00:49:39;;;;;;;25.32;7.22;;;;;;;21.40;52.88;101539.72;2345605;74;51111;-80
2024/03/17 00:52:41;;;;;;;25.12;7.22;;;;;;;21.39;52.91;101545.28;2383769;74;50437;-80
2024/03/17 00:55:43;;;;;;;25.05;6.90;;;;;;;21.39;52.92;101546.11;2383748;74;50250;-80
2024/03/17 00:58:46;;;;;;;25.85;6.30;;;;;;;21.38;52.90;101535.02;2384216;74;50732;-81
2024/03/17 01:01:49;;;;;;;22.07;5.97;;;;;;;21.38;52.89;101535.02;2345648;73;51658;-81
2024/03/17 01:04:51;;;;;;;26.48;6.70;;;;;;;21.38;52.89;101537.71;2383410;74;51686;-81
2024/03/17 01:07:53;;;;;;;23.80;6.92;;;;;;;21.38;52.81;101538.20;2383118;74;50068;-81
2024/03/17 01:10:56;;;;;;;21.95;6.92;;;;;;;21.37;52.81;101537.33;2383280;74;50107;-81
2024/03/17 01:13:58;;;;;;;17.37;6.45;;;;;;;21.37;52.78;101547.27;2383023;74;50817;-82
2024/03/17 01:17:04;;;;;;;25.60;5.85;;;;;;;21.37;52.78;101546.75;2382888;74;50699;-81
2024/03/17 01:20:05;;;;;;;20.20;6.08;;;;;;;21.36;52.75;101545.61;2346233;74;22047;-82
2024/03/17 01:23:07;;;;;;;21.33;5.80;;;;;;;21.36;52.69;101545.09;2319124;74;51504;-81
2024/03/17 01:26:09;;;;;;;21.33;6.40;;;;;;;21.35;52.74;101543.43;2383037;74;50830;-81
2024/03/17 01:29:12;;;;;;;20.20;5.85;;;;;;;21.35;52.67;101544.78;2383519;74;50435;-80
2024/03/17 01:32:14;;;;;;;17.90;5.67;;;;;;;21.34;52.67;101544.43;2345230;74;49919;-82
2024/03/17 01:35:16;;;;;;;18.10;5.80;;;;;;;21.34;52.63;101540.39;2383086;74;50848;-81
2024/03/17 01:38:18;;;;;;;17.12;5.40;;;;;;;21.35;52.62;101546.61;2345185;74;50274;-81
2024/03/17 01:41:21;;;;;;;19.05;5.33;;;;;;;21.34;52.61;101553.85;2382618;74;50576;-82
2024/03/17 01:44:24;;;;;;;15.23;5.55;;;;;;;21.33;52.60;101544.11;2382700;74;50631;-81
2024/03/17 01:47:27;;;;;;;17.60;5.33;;;;;;;21.33;52.56;101542.77;2318527;74;51159;-81
2024/03/17 01:50:38;;;;;;;19.48;5.17;;;;;;;21.33;52.55;101537.90;2382256;74;50763;-81
2024/03/17 01:53:40;;;;;;;16.80;5.12;;;;;;;21.32;52.52;101537.03;2382601;74;50382;-81
2024/03/17 01:56:43;;;;;;;12.25;4.90;;;;;;;21.31;52.52;101543.45;2344643;74;50046;-81
2024/03/17 01:59:46;;;;;;;18.73;5.58;;;;;;;21.30;52.46;101536.41;2382695;74;51602;-82
2024/03/17 02:02:48;;;;;;;15.58;4.92;;;;;;;21.30;52.47;101537.23;2382810;73;51565;-80
2024/03/17 02:05:51;;;;;;;15.10;5.55;;;;;;;21.28;52.46;101541.95;2382744;74;52111;-82
2024/03/17 02:08:54;;;;;;;20.55;5.22;;;;;;;21.30;52.43;101535.05;2383039;74;50769;-81
2024/03/17 02:11:56;;;;;;;11.38;4.40;;;;;;;21.28;52.43;101530.35;2318795;74;50815;-81
2024/03/17 02:15:00;;;;;;;12.35;4.75;;;;;;;21.28;52.41;101547.34;2383212;74;52170;-81
2024/03/17 02:18:02;;;;;;;16.70;4.67;;;;;;;21.27;52.36;101544.33;2382032;74;50797;-81
2024/03/17 02:21:05;;;;;;;12.33;4.33;;;;;;;21.26;52.33;101543.98;2292593;74;51076;-81
2024/03/17 02:24:09;;;;;;;12.37;4.00;;;;;;;21.26;52.33;101541.80;2345547;74;51915;-81
2024/03/17 02:27:11;;;;;;;17.75;4.80;;;;;;;21.26;52.29;101541.28;2318688;73;50676;-81
2024/03/17 02:30:13;;;;;;;12.68;4.30;;;;;;;21.26;52.22;101541.80;2382999;74;50377;-81
2024/03/17 02:33:16;;;;;;;16.20;4.55;;;;;;;21.24;52.21;101537.93;2400931;73;51511;-81
2024/03/17 02:36:18;;;;;;;12.20;4.40;;;;;;;21.25;52.25;101540.14;2401207;73;51627;-81
2024/03/17 02:39:35;;;;;;;16.40;4.78;;;;;;;21.24;52.27;101544.66;2401151;73;51319;-81
2024/03/17 02:42:41;;;;;;;12.23;3.80;;;;;;;21.24;52.29;101547.86;2382983;74;50912;-81
2024/03/17 02:45:44;;;;;;;15.85;4.67;;;;;;;21.26;52.24;101540.45;2401222;73;51745;-81
2024/03/17 02:48:49;;;;;;;13.70;4.55;;;;;;;21.24;52.23;101541.14;2383376;74;50442;-81
2024/03/17 02:51:55;;;;;;;16.87;4.40;;;;;;;21.24;52.20;101543.83;2383044;74;51524;-81
2024/03/17 02:54:57;;;;;;;13.28;4.62;;;;;;;21.24;52.14;101541.14;2381560;73;51410;-81
2024/03/17 02:57:59;;;;;;;13.90;4.05;;;;;;;21.24;52.16;101538.45;2345027;74;50651;-81
2024/03/17 03:01:01;;;;;;;12.43;4.42;;;;;;;21.24;52.08;101535.75;2400611;73;51586;-80
2024/03/17 03:04:03;;;;;;;13.90;4.62;;;;;;;21.23;52.10;101538.95;2382494;74;50974;-80
2024/03/17 03:07:06;;;;;;;9.90;3.40;;;;;;;21.24;52.12;101545.17;2372374;73;50613;-80
2024/03/17 03:10:08;;;;;;;10.68;3.62;;;;;;;21.23;52.06;101543.52;2400582;73;51702;-80
2024/03/17 03:13:11;;;;;;;11.25;4.03;;;;;;;21.23;52.01;101544.86;2345106;74;50306;-80
2024/03/17 03:16:18;;;;;;;10.58;3.65;;;;;;;21.23;51.98;101542.16;2346285;74;50885;-80
2024/03/17 03:19:20;;;;;;;11.68;3.72;;;;;;;21.22;51.99;101544.03;2373283;74;51680;-81
2024/03/17 03:22:22;;;;;;;10.82;3.58;;;;;;;21.22;51.95;101539.13;2384823;73;50946;-81
2024/03/17 03:25:25;;;;;;;10.00;3.35;;;;;;;21.22;51.98;101539.98;2373926;73;50895;-82
2024/03/17 03:28:28;;;;;;;11.55;4.25;;;;;;;21.23;51.96;101543.52;2383645;74;50271;-81
2024/03/17 03:31:31;;;;;;;9.45;3.37;;;;;;;21.23;51.92;101544.86;2347192;74;50794;-81
2024/03/17 03:34:33;;;;;;;9.28;3.62;;;;;;;21.23;51.91;101548.89;2401708;73;51241;-80
2024/03/17 03:37:36;;;;;;;9.75;3.87;;;;;;;21.22;51.82;101553.45;2344739;74;51490;-82
2024/03/17 03:40:38;;;;;;;11.83;3.55;;;;;;;21.22;51.73;101546.72;2382597;74;50622;-82
2024/03/17 03:43:40;;;;;;;10.10;3.30;;;;;;;21.21;51.66;101550.41;2400729;73;51524;-80
2024/03/17 03:46:43;;;;;;;9.78;3.60;;;;;;;21.22;51.61;101545.85;2382885;74;50720;-80
2024/03/17 03:49:45;;;;;;;11.93;3.50;;;;;;;21.22;51.57;101542.68;2400873;72;50244;-81
2024/03/17 03:52:47;;;;;;;13.00;3.25;;;;;;;21.22;51.53;101553.92;2372739;73;51617;-81
2024/03/17 03:55:49;;;;;;;13.88;3.65;;;;;;;21.22;51.49;101547.20;2382751;74;51451;-81
2024/03/17 03:58:52;;;;;;;9.40;3.58;;;;;;;21.22;51.41;101560.17;2373112;73;51010;-82
2024/03/17 04:01:54;;;;;;;11.73;3.37;;;;;;;21.21;51.39;101559.00;2383947;74;51421;-81
2024/03/17 04:04:56;;;;;;;14.75;3.35;;;;;;;21.20;51.40;101560.86;2383605;74;50328;-81
2024/03/17 04:07:58;;;;;;;9.73;3.33;;;;;;;21.20;51.35;101555.98;2383631;73;50613;-81
2024/03/17 04:11:01;;;;;;;11.18;3.25;;;;;;;21.21;51.30;101558.48;2383523;74;50670;-82
2024/03/17 04:14:04;;;;;;;10.43;3.22;;;;;;;21.21;51.32;101561.69;2400837;73;50962;-82
2024/03/17 04:17:07;;;;;;;10.70;3.22;;;;;;;21.21;51.31;101559.00;2400878;72;51259;-82
2024/03/17 04:20:12;;;;;;;9.78;2.90;;;;;;;21.21;51.31;101554.95;2373277;73;50426;-82
2024/03/17 04:23:13;;;;;;;9.78;3.12;;;;;;;21.20;51.24;101558.16;2400990;73;22201;-82
2024/03/17 04:26:15;;;;;;;8.20;3.10;;;;;;;21.20;51.23;101554.64;2382968;74;50424;-81
2024/03/17 04:29:17;;;;;;;11.08;3.22;;;;;;;21.20;51.17;101551.95;2383003;74;50850;-82
2024/03/17 04:32:20;;;;;;;9.28;3.08;;;;;;;21.20;51.18;101558.16;2345318;74;50702;-81
2024/03/17 04:35:22;;;;;;;8.18;2.87;;;;;;;21.19;51.20;101556.98;2382843;74;50770;-81
2024/03/17 04:38:25;;;;;;;8.05;2.72;;;;;;;21.20;51.11;101558.67;2401147;73;51498;-81
2024/03/17 04:41:27;;;;;;;8.70;2.80;;;;;;;21.20;51.02;101566.23;2382921;73;49848;-81
2024/03/17 04:44:29;;;;;;;10.18;3.05;;;;;;;21.19;50.90;101573.97;2382611;74;51197;-81
2024/03/17 04:47:31;;;;;;;11.03;2.87;;;;;;;21.19;50.74;101571.78;2400430;73;49288;-81
2024/03/17 04:50:34;;;;;;;10.32;3.02;;;;;;;21.18;50.68;101576.34;2382672;74;50738;-82
2024/03/17 04:53:36;;;;;;;13.62;3.15;;;;;;;21.18;50.55;101570.13;2345108;74;50353;-82
2024/03/17 04:56:38;;;;;;;10.40;3.17;;;;;;;21.18;50.71;101583.58;2382710;74;50335;-82
2024/03/17 04:59:40;;;;;;;8.60;2.50;;;;;;;21.19;50.75;101587.94;2401010;73;50667;-82
2024/03/17 05:02:43;;;;;;;9.88;2.80;;;;;;;21.17;50.75;101584.09;2372346;74;50011;-81
2024/03/17 05:05:45;;;;;;;12.75;2.90;;;;;;;21.18;50.73;101591.66;2400773;73;51615;-81
2024/03/17 05:08:47;;;;;;;8.75;2.80;;;;;;;21.17;50.83;101584.09;2382459;74;51549;-81
2024/03/17 05:11:55;;;;;;;9.05;3.10;;;;;;;21.18;50.84;101592.48;2400884;73;50864;-81
2024/03/17 05:14:54;;;;;;;7.70;2.67;;;;;;;21.15;50.79;101582.08;2345339;74;22462;-81
2024/03/17 05:17:57;;;;;;;9.98;2.72;;;;;;;21.16;50.74;101589.13;2382573;73;50699;-81
2024/03/17 05:21:03;;;;;;;9.30;2.98;;;;;;;21.15;50.64;101577.22;2382420;74;51785;-81
2024/03/17 05:24:06;;;;;;;11.40;2.90;;;;;;;21.14;50.54;101582.25;2400847;73;50766;-81
2024/03/17 05:27:08;;;;;;;16.85;3.30;;;;;;;21.13;50.48;101573.34;2372559;74;50874;-81
2024/03/17 05:30:11;;;;;;;9.45;2.90;;;;;;;21.13;50.33;101581.92;2382571;74;51965;-81
2024/03/17 05:33:13;;;;;;;12.23;3.35;;;;;;;21.13;50.24;101590.83;2400774;72;50344;-81
2024/03/17 05:36:16;;;;;;;11.08;2.98;;;;;;;21.12;50.32;101590.52;2372769;73;50193;-83
2024/03/17 05:39:18;;;;;;;15.03;3.45;;;;;;;21.13;50.23;101601.60;2383257;74;51369;-80
2024/03/17 05:42:22;;;;;;;18.55;3.70;;;;;;;21.12;50.27;101599.94;2390224;73;51478;-82
2024/03/17 05:45:24;;;;;;;19.02;3.47;;;;;;;21.13;50.19;101601.60;2386561;73;50683;-81
2024/03/17 05:48:26;;;;;;;13.10;2.98;;;;;;;21.13;50.26;101599.42;2425667;73;51540;-81
2024/03/17 05:51:28;;;;;;;14.87;3.35;;;;;;;21.13;50.20;101604.29;2386343;73;49984;-81
2024/03/17 05:54:31;;;;;;;17.35;3.75;;;;;;;21.14;50.02;101606.47;2426376;73;50682;-81
2024/03/17 05:57:33;;;;;;;24.77;3.95;;;;;;;21.16;50.05;101609.83;2345870;74;51435;-81
2024/03/17 06:00:39;;;;;;;21.45;3.87;;;;;;;21.15;50.01;101606.30;2345595;74;49370;-81
2024/03/17 06:03:42;;;;;;;30.80;4.58;;;;;;;21.14;49.89;101615.38;2345838;74;50791;-82
2024/03/17 06:06:45;;;;;;;24.10;4.12;;;;;;;21.16;49.94;101616.04;2344771;74;51736;-82
2024/03/17 06:09:47;;;;;;;35.75;5.83;;;;;;;21.17;50.20;101623.60;2382282;74;51356;-82
2024/03/17 06:12:49;;;;;;;30.68;4.15;;;;;;;21.22;50.78;101626.60;2319338;74;51493;-82
2024/03/17 06:16:00;;;;;;;37.03;4.47;;;;;;;21.23;50.89;101637.72;2345623;74;50929;-81
2024/03/17 06:18:59;;;;;;;23.47;3.85;;;;;;;21.27;50.80;101633.64;2381915;73;23108;-80
2024/03/17 06:22:02;;;;;;;27.42;4.28;;;;;;;21.26;50.78;101630.11;2382920;74;50397;-80
2024/03/17 06:25:08;;;;;;;28.40;4.37;;;;;;;21.25;50.83;101638.39;2346644;73;50061;-81
2024/03/17 06:28:13;;;;;;;20.00;3.87;;;;;;;21.26;50.80;101636.02;2385001;74;21721;-81
2024/03/17 06:31:16;;;;;;;32.80;4.33;;;;;;;21.29;50.82;101651.30;2410805;73;50440;-81
2024/03/17 06:34:19;;;;;;;37.17;4.28;;;;;;;21.29;50.56;101653.16;2421084;73;51285;-81
2024/03/17 06:37:23;;;;;;;26.65;3.87;;;;;;;21.29;50.24;101649.11;2421270;73;50857;-84
2024/03/17 06:40:25;;;;;;;37.67;4.87;;;;;;;21.28;49.17;101646.94;2384457;73;51170;-81
2024/03/17 06:43:27;;;;;;;33.33;4.87;;;;;;;21.29;49.46;101646.42;2420503;73;50712;-80
2024/03/17 06:46:29;;;;;;;31.17;3.90;;;;;;;21.28;49.55;101645.59;2420392;72;49765;-82
2024/03/17 06:49:32;;;;;;;32.58;4.20;;;;;;;21.28;49.51;101648.80;2411915;73;50060;-82
2024/03/17 06:52:34;;;;;;;23.32;4.00;;;;;;;21.27;49.45;101654.69;2411231;73;50922;-80
2024/03/17 06:55:37;;;;;;;29.57;4.42;;;;;;;21.28;49.37;101664.95;2419580;73;50575;-82
2024/03/17 06:58:39;;;;;;;27.32;4.00;;;;;;;21.29;49.12;101658.53;2420025;72;50899;-83
2024/03/17 07:01:41;;;;;;;20.82;3.75;;;;;;;21.30;49.30;101666.96;2419697;73;52140;-82
2024/03/17 07:04:44;;;;;;;34.05;4.70;;;;;;;21.30;49.38;101675.04;2397944;74;52315;-82
2024/03/17 07:07:46;;;;;;;31.33;3.77;;;;;;;21.29;49.30;101678.21;2383578;74;51559;-82
2024/03/17 07:11:05;;;;;;;42.78;5.20;;;;;;;21.29;49.43;101680.07;2392449;73;51498;-80
2024/03/17 07:14:07;;;;;;;26.42;4.30;;;;;;;21.29;49.65;101677.37;2400478;73;49649;-80
2024/03/17 07:17:09;;;;;;;33.63;4.53;;;;;;;21.33;49.69;101688.66;2382160;74;50403;-80
2024/03/17 07:20:12;;;;;;;45.55;4.87;;;;;;;21.33;49.88;101688.66;2382621;74;50578;-82
2024/03/17 07:23:18;;;;;;;47.35;5.60;;;;;;;21.35;49.91;101691.98;2382752;74;50770;-79
2024/03/17 07:26:20;;;;;;;38.73;4.83;;;;;;;21.33;50.06;101693.52;2400723;73;51517;-81
2024/03/17 07:29:22;;;;;;;43.45;5.22;;;;;;;21.34;50.07;101697.87;2371802;74;52372;-81
2024/03/17 07:32:25;;;;;;;39.38;4.62;;;;;;;21.36;50.08;101697.20;2383429;73;51485;-80
2024/03/17 07:35:31;;;;;;;40.20;4.58;;;;;;;21.37;49.81;101703.42;2383687;74;51740;-80
2024/03/17 07:38:35;;;;;;;39.70;5.45;;;;;;;21.36;49.69;101697.20;2383989;73;21756;-81
2024/03/17 07:41:37;;;;;;;41.05;4.83;;;;;;;21.36;49.63;101699.06;2345943;74;52897;-84
2024/03/17 07:44:40;;;;;;;31.12;4.95;;;;;;;21.39;49.42;101707.65;2383676;74;50838;-84
2024/03/17 07:47:42;;;;;;;35.13;4.37;;;;;;;21.33;48.75;101716.92;2383824;73;50660;-84
2024/03/17 07:50:44;;;;;;;29.95;4.58;;;;;;;21.32;49.12;101724.13;2346331;74;50425;-82
2024/03/17 07:53:47;;;;;;;31.70;4.20;;;;;;;21.32;47.83;101716.06;2345103;74;50064;-82
2024/03/17 07:56:56;;;;;;;29.67;4.05;;;;;;;21.32;47.89;101720.09;2347214;74;51783;-82
2024/03/17 08:00:02;;;;;;;27.80;4.47;;;;;;;21.38;47.67;101719.45;2386392;73;22269;-82
2024/03/17 08:03:04;;;;;;;35.50;5.28;;;;;;;21.46;47.54;101728.82;2347110;74;51205;-81
2024/03/17 08:06:08;;;;;;;37.55;10.95;;;;;;;21.41;48.39;101719.09;2372547;73;50594;-81
2024/03/17 08:09:10;;;;;;;52.43;17.20;;;;;;;21.47;51.99;101725.62;2382153;74;50374;-81
2024/03/17 08:12:12;;;;;;;70.87;37.35;;;;;;;21.55;51.79;101716.66;2382274;74;50240;-81
2024/03/17 08:15:15;;;;;;;54.85;22.55;;;;;;;21.64;52.71;101715.61;2344654;74;50710;-80
2024/03/17 08:18:17;;;;;;;45.48;17.92;;;;;;;21.82;51.52;101722.89;2372065;74;49672;-81
2024/03/17 08:21:19;;;;;;;44.27;16.40;;;;;;;21.91;50.62;101712.41;2382241;74;51475;-80
2024/03/17 08:24:21;;;;;;;49.55;15.35;;;;;;;21.95;50.18;101711.53;2400306;73;51668;-80
2024/03/17 08:27:23;;;;;;;39.27;15.00;;;;;;;21.97;49.81;101721.63;2400446;73;50981;-80
2024/03/17 08:30:26;;;;;;;35.43;13.90;;;;;;;21.99;49.45;101714.20;2382149;74;50329;-80
2024/03/17 08:33:29;;;;;;;31.82;12.33;;;;;;;21.94;49.40;101712.05;2344800;74;50703;-81
2024/03/17 08:36:31;;;;;;;45.60;13.13;;;;;;;21.94;49.28;101708.52;2382016;74;51651;-80
2024/03/17 08:39:33;;;;;;;35.90;12.25;;;;;;;21.94;49.12;101707.17;2410399;73;50756;-78
2024/03/17 08:42:35;;;;;;;39.88;12.37;;;;;;;22.00;48.88;101706.95;2384659;73;52416;-77
2024/03/17 08:45:38;;;;;;;36.73;11.50;;;;;;;22.02;48.81;101700.88;2424252;73;51507;-78
2024/03/17 08:48:41;;;;;;;38.28;11.48;;;;;;;22.04;48.82;101704.20;2385027;73;51482;-78
2024/03/17 08:51:44;;;;;;;33.13;10.35;;;;;;;22.02;48.65;101710.31;2325749;73;51021;-77
2024/03/17 08:54:51;;;;;;;38.80;11.25;;;;;;;22.01;48.50;101714.01;2381169;73;50110;-78
2024/03/17 08:57:53;;;;;;;37.38;10.72;;;;;;;22.03;48.44;101707.94;2381817;73;23570;-79
2024/03/17 09:00:56;;;;;;;42.95;10.32;;;;;;;21.99;48.50;101716.91;2417860;73;52271;-78
2024/03/17 09:04:01;;;;;;;29.10;9.25;;;;;;;21.98;48.65;101727.33;2419251;73;51501;-77
2024/03/17 09:07:03;;;;;;;31.85;8.68;;;;;;;21.98;48.24;101722.45;2419292;73;21972;-78
2024/03/17 09:10:06;;;;;;;24.43;6.45;;;;;;;21.93;48.01;101730.55;2385076;73;50744;-79
2024/03/17 09:13:23;;;;;;;28.90;7.42;;;;;;;21.80;45.46;101716.02;2426467;73;50782;-79
2024/03/17 09:16:30;;;;;;;29.18;5.35;;;;;;;21.77;46.72;101720.41;2422217;73;22249;-78
2024/03/17 09:19:33;;;;;;;13.35;3.45;;;;;;;21.69;44.90;101718.61;2417808;73;21767;-78
2024/03/17 09:22:35;;;;;;;17.57;3.65;;;;;;;21.57;42.39;101720.85;2408072;72;51535;-79
2024/03/17 09:25:37;;;;;;;13.22;3.58;;;;;;;21.39;38.19;101722.45;2381549;74;51460;-76
2024/03/17 09:28:39;;;;;;;16.27;3.55;;;;;;;21.37;42.17;101721.75;2381566;74;50358;-77
2024/03/17 09:31:42;;;;;;;13.65;3.30;;;;;;;21.38;41.68;101727.52;2317382;74;51005;-77
2024/03/17 09:34:49;;;;;;;14.03;3.12;;;;;;;21.39;41.82;101727.01;2343747;74;51636;-77
2024/03/17 09:37:51;;;;;;;23.70;3.47;;;;;;;21.40;41.83;101713.38;2342586;74;50736;-77
2024/03/17 09:40:57;;;;;;;22.48;3.27;;;;;;;21.41;41.93;101721.78;2343690;74;50143;-77
2024/03/17 09:43:58;;;;;;;29.60;3.80;;;;;;;21.41;42.14;101731.72;2341383;74;22368;-77
2024/03/17 09:47:01;;;;;;;23.05;3.90;;;;;;;21.42;42.78;101728.83;2360461;71;50778;-80
2024/03/17 09:50:04;;;;;;;22.25;3.58;;;;;;;21.44;42.37;101725.98;2407490;73;51085;-79
2024/03/17 09:53:06;;;;;;;19.70;4.37;;;;;;;21.43;43.02;101714.89;2345254;74;50813;-80
2024/03/17 09:56:18;;;;;;;17.98;3.45;;;;;;;21.44;43.01;101707.96;2371424;73;50085;-80
2024/03/17 09:59:17;;;;;;;17.20;3.12;;;;;;;21.46;43.21;101705.94;2370886;74;22331;-80
2024/03/17 10:02:19;;;;;;;20.05;3.67;;;;;;;21.49;43.27;101698.84;2382983;74;51508;-80
2024/03/17 10:05:25;;;;;;;17.23;3.50;;;;;;;21.52;43.19;101699.00;2382693;74;50958;-80
2024/03/17 10:08:27;;;;;;;22.15;3.33;;;;;;;21.53;43.38;101702.88;2345314;74;50257;-79
2024/03/17 10:11:36;;;;;;;19.20;3.58;;;;;;;21.56;43.67;101699.50;2372343;73;49516;-80
2024/03/17 10:14:39;;;;;;;12.75;3.35;;;;;;;21.56;43.48;101700.84;2372355;73;51013;-80
2024/03/17 10:17:41;;;;;;;17.77;3.15;;;;;;;21.58;43.69;101696.09;2382978;74;50782;-80
2024/03/17 10:20:43;;;;;;;18.12;3.47;;;;;;;21.59;43.71;101707.22;2372284;74;50692;-80
2024/03/17 10:23:46;;;;;;;23.20;3.70;;;;;;;21.62;43.75;101709.55;2372238;73;50771;-80
2024/03/17 10:26:52;;;;;;;13.90;3.17;;;;;;;21.64;43.84;101706.18;2383049;73;50805;-80
2024/03/17 10:29:55;;;;;;;15.43;3.42;;;;;;;21.65;43.97;101706.50;2383332;74;50419;-80
2024/03/17 10:33:00;;;;;;;12.50;3.42;;;;;;;21.66;44.03;101701.46;2383250;74;51493;-80
2024/03/17 10:36:05;;;;;;;18.10;3.60;;;;;;;21.65;44.09;101707.84;2383560;74;50782;-80
2024/03/17 10:39:08;;;;;;;12.47;3.37;;;;;;;21.64;44.02;101706.18;2383703;73;22290;-80
2024/03/17 10:42:11;;;;;;;16.70;3.35;;;;;;;21.63;44.08;101709.39;2383319;74;50753;-80
2024/03/17 10:45:14;;;;;;;18.95;3.90;;;;;;;21.63;44.25;101711.22;2383219;74;50804;-81
2024/03/17 10:48:16;;;;;;;14.43;4.08;;;;;;;21.63;44.34;101709.88;2372912;73;50942;-80
2024/03/17 10:51:18;;;;;;;15.88;3.98;;;;;;;21.67;44.45;101711.20;2383366;73;50384;-80
2024/03/17 10:54:28;;;;;;;20.17;4.08;;;;;;;21.69;44.46;101714.05;2372623;73;52383;-79
2024/03/17 10:57:40;;;;;;;13.78;3.75;;;;;;;21.69;44.54;101707.31;2372335;74;22447;-81
2024/03/17 11:00:43;;;;;;;16.00;4.17;;;;;;;21.69;44.70;101707.31;2382422;74;51630;-80
2024/03/17 11:03:47;;;;;;;20.97;4.33;;;;;;;21.69;44.58;101697.89;2372077;73;49811;-80
2024/03/17 11:06:49;;;;;;;15.30;4.62;;;;;;;21.68;44.54;101700.75;2383145;74;50965;-80
2024/03/17 11:09:52;;;;;;;15.23;3.52;;;;;;;21.70;44.70;101709.50;2383353;74;50740;-80
2024/03/17 11:12:58;;;;;;;14.80;4.30;;;;;;;21.68;44.57;101712.39;2372185;73;50861;-81
2024/03/17 11:16:04;;;;;;;17.45;4.75;;;;;;;21.66;44.56;101713.58;2383401;74;51816;-81
2024/03/17 11:19:07;;;;;;;18.98;4.55;;;;;;;21.67;44.75;101709.86;2372638;74;22309;-81
2024/03/17 11:22:43;;;;;;;18.65;3.80;;;;;;;21.70;44.71;101706.80;2383407;74;50837;-81
2024/03/17 11:25:53;;;;;;;15.48;4.28;;;;;;;21.71;44.85;101700.42;2383473;74;50173;-81
2024/03/17 11:28:57;;;;;;;16.80;4.10;;;;;;;21.74;44.60;101700.06;2345565;74;51599;-80
2024/03/17 11:31:59;;;;;;;13.08;3.90;;;;;;;21.79;44.43;101701.70;2383431;73;51512;-80
2024/03/17 11:35:14;;;;;;;12.53;3.55;;;;;;;21.79;44.62;101693.63;2372425;73;51485;-80
2024/03/17 11:38:45;;;;;;;14.58;4.08;;;;;;;21.82;44.54;101697.30;2372755;73;50108;-80
2024/03/17 11:41:48;;;;;;;13.65;3.40;;;;;;;21.83;44.64;101696.27;2338984;74;50608;-80
2024/03/17 11:45:02;;;;;;;14.73;3.75;;;;;;;21.86;44.73;101700.47;2383141;74;50676;-80
2024/03/17 11:48:07;;;;;;;13.30;4.10;;;;;;;21.87;44.74;101693.56;2381836;74;51452;-80
2024/03/17 11:51:09;;;;;;;13.18;3.35;;;;;;;21.87;44.63;101699.47;2383436;74;50375;-79
2024/03/17 11:54:27;;;;;;;15.90;3.85;;;;;;;21.87;44.66;101696.25;2317916;74;50096;-80
2024/03/17 11:57:29;;;;;;;14.07;3.72;;;;;;;21.90;44.50;101696.41;2346967;74;50434;-81
2024/03/17 12:00:31;;;;;;;14.05;3.58;;;;;;;21.92;44.42;101689.81;2383770;74;51395;-80
2024/03/17 12:03:34;;;;;;;13.25;3.10;;;;;;;21.93;44.43;101691.48;2372835;74;49280;-81
2024/03/17 12:06:36;;;;;;;10.55;3.25;;;;;;;21.96;44.17;101687.11;2383580;74;50386;-81
2024/03/17 12:09:38;;;;;;;15.75;3.50;;;;;;;21.95;44.48;101686.76;2383718;74;50805;-81
2024/03/17 12:12:40;;;;;;;13.22;3.17;;;;;;;21.95;44.36;101687.27;2386388;73;51420;-81
2024/03/17 12:15:43;;;;;;;14.80;3.27;;;;;;;21.95;44.00;101705.63;2395905;73;50280;-81
2024/03/17 12:18:45;;;;;;;13.93;3.90;;;;;;;21.96;44.08;101701.93;2363040;74;50030;-80
2024/03/17 12:21:49;;;;;;;14.83;3.58;;;;;;;22.00;44.22;101689.44;2383002;74;50903;-82
2024/03/17 12:24:59;;;;;;;10.32;3.60;;;;;;;22.02;44.15;101684.71;2401787;72;50956;-82
2024/03/17 12:27:57;;;;;;;16.80;3.77;;;;;;;22.06;44.18;101682.80;2379555;73;22314;-82
2024/03/17 12:30:59;;;;;;;11.70;3.10;;;;;;;22.06;44.09;101681.96;2382942;74;51517;-82
2024/03/17 12:34:07;;;;;;;9.53;3.02;;;;;;;22.07;44.21;101683.14;2383070;74;51406;-82
2024/03/17 12:37:39;;;;;;;10.35;3.02;;;;;;;22.08;44.50;101670.50;2384142;74;22977;-81
2024/03/17 12:40:46;;;;;;;10.05;3.00;;;;;;;22.07;44.20;101668.83;2400496;73;51426;-82
2024/03/17 12:43:54;;;;;;;9.40;2.50;;;;;;;22.02;44.03;101653.20;2422489;73;22079;-83
2024/03/17 12:47:00;;;;;;;11.20;2.55;;;;;;;22.04;43.45;101662.43;2420053;73;51260;-84
2024/03/17 12:50:05;;;;;;;17.17;2.75;;;;;;;22.07;43.43;101659.40;2387983;73;51260;-83
2024/03/17 12:53:06;;;;;;;9.58;2.60;;;;;;;22.08;43.50;101650.28;2361607;73;22432;-81
2024/03/17 13:03:01;;;;;;;14.05;2.95;;;;;;;22.12;43.64;101662.39;2395140;73;21782;-80
2024/03/17 13:06:05;;;;;;;11.50;2.60;;;;;;;22.14;43.68;101656.28;2386666;73;50581;-80
2024/03/17 13:09:10;;;;;;;10.90;2.90;;;;;;;22.13;43.86;101674.31;2426020;73;50592;-79
2024/03/17 13:12:15;;;;;;;15.23;2.87;;;;;;;22.18;43.81;101664.34;2426438;73;22397;-84
2024/03/17 13:15:18;;;;;;;11.65;2.80;;;;;;;22.20;43.85;101665.03;2385980;73;50665;-82
2024/03/17 13:18:20;;;;;;;23.27;2.72;;;;;;;22.20;44.02;101662.34;2386023;73;51267;-80
2024/03/17 13:21:22;;;;;;;15.48;2.80;;;;;;;22.22;44.16;101665.70;2386140;73;50356;-80
2024/03/17 13:24:25;;;;;;;13.05;2.90;;;;;;;22.19;44.34;101663.34;2425701;73;50400;-81
2024/03/17 13:27:27;;;;;;;7.12;2.10;;;;;;;22.15;44.08;101657.45;2424554;73;51522;-81
2024/03/17 13:30:29;;;;;;;8.40;1.75;;;;;;;22.10;43.98;101665.77;2426127;73;50578;-81
2024/03/17 13:33:32;;;;;;;4.62;1.72;;;;;;;22.02;43.02;101656.41;2385969;73;49924;-81
2024/03/17 13:36:35;;;;;;;10.20;2.00;;;;;;;21.95;41.22;101651.72;2425292;73;51545;-81
2024/03/17 13:39:37;;;;;;;5.12;1.40;;;;;;;21.83;39.17;101658.55;2386648;73;50437;-81
2024/03/17 13:42:40;;;;;;;8.38;1.62;;;;;;;21.72;38.51;101667.06;2386505;73;50042;-82
2024/03/17 13:45:43;;;;;;;10.25;2.67;;;;;;;21.67;38.79;101668.11;2425784;73;50434;-81
2024/03/17 13:48:45;;;;;;;8.88;4.97;;;;;;;21.61;38.06;101667.48;2426289;73;50940;-81
2024/03/17 13:51:47;;;;;;;14.23;5.90;;;;;;;21.52;35.11;101662.12;2426377;73;50346;-83
2024/03/17 13:54:50;;;;;;;8.63;3.10;;;;;;;21.47;36.31;101667.20;2386571;73;50627;-83
2024/03/17 13:57:58;;;;;;;10.13;3.30;;;;;;;21.42;36.21;101666.07;2359446;73;49909;-81
2024/03/17 14:01:01;;;;;;;8.90;4.05;;;;;;;21.40;37.94;101660.87;2426469;73;50836;-81
2024/03/17 14:04:03;;;;;;;8.13;3.37;;;;;;;21.38;36.73;101662.04;2426559;73;51607;-80
2024/03/17 14:07:05;;;;;;;6.92;2.90;;;;;;;21.35;37.22;101663.23;2387017;73;51665;-83
2024/03/17 14:10:08;;;;;;;6.90;2.17;;;;;;;21.36;35.58;101652.78;2426512;73;51528;-81